createdAt,value
2023-05-15T00:00:51.304Z,66.98
2023-05-15T00:03:21.625Z,67.49
2023-05-15T00:05:49.866Z,67.10
2023-05-15T00:08:17.518Z,66.96
2023-05-15T00:10:53.969Z,67.17
2023-05-15T00:17:15.690Z,67.00
2023-05-15T00:19:43.247Z,67.07
2023-05-15T00:22:10.779Z,67.60
2023-05-15T00:24:38.298Z,67.56
2023-05-15T00:27:06.314Z,67.77
2023-05-15T00:29:33.965Z,67.80
2023-05-15T00:32:01.937Z,67.34
2023-05-15T00:34:29.462Z,67.56
2023-05-15T00:36:59.207Z,68.31
2023-05-15T00:39:27.091Z,68.55
2023-05-15T00:41:57.678Z,67.99
2023-05-15T00:44:26.868Z,68.15
2023-05-15T00:46:57.634Z,68.15
2023-05-15T00:49:27.749Z,68.63
2023-05-15T00:51:57.775Z,68.71
2023-05-15T00:54:25.421Z,68.37
2023-05-15T00:56:56.361Z,68.64
2023-05-15T00:59:26.473Z,68.53
2023-05-15T01:01:55.056Z,68.61
2023-05-15T01:04:22.963Z,68.68
2023-05-15T01:06:54.025Z,69.10
2023-05-15T01:09:25.101Z,69.00
2023-05-15T01:12:32.119Z,68.90
2023-05-15T01:15:00.031Z,68.61
2023-05-15T01:17:28.117Z,68.74
2023-05-15T01:19:58.286Z,68.96
2023-05-15T01:22:41.971Z,68.83
2023-05-15T01:25:54.133Z,68.78
2023-05-15T01:28:32.295Z,68.90
2023-05-15T01:31:10.656Z,68.47
2023-05-15T01:33:43.665Z,68.60
2023-05-15T01:36:21.810Z,68.82
2023-05-15T01:38:53.941Z,68.54
2023-05-15T01:41:22.310Z,68.03
2023-05-15T01:43:56.501Z,68.48
2023-05-15T01:46:28.491Z,68.46
2023-05-15T01:49:01.431Z,68.41
2023-05-15T01:51:31.475Z,68.24
2023-05-15T01:53:59.820Z,68.60
2023-05-15T01:56:27.567Z,68.33
2023-05-15T01:58:57.063Z,68.67
2023-05-15T02:01:26.245Z,68.82
2023-05-15T02:03:55.465Z,68.92
2023-05-15T02:06:24.492Z,69.43
2023-05-15T02:08:59.596Z,68.78
2023-05-15T02:11:27.202Z,68.80
2023-05-15T02:13:57.153Z,69.31
2023-05-15T02:16:24.921Z,69.39
2023-05-15T02:18:52.821Z,69.58
2023-05-15T02:21:21.018Z,69.42
2023-05-15T02:23:48.666Z,69.53
2023-05-15T02:26:51.181Z,69.86
2023-05-15T02:29:38.097Z,69.99
2023-05-15T02:32:29.394Z,70.03
2023-05-15T02:35:37.428Z,70.34
2023-05-15T02:38:09.332Z,70.02
2023-05-15T02:40:37.960Z,69.94
2023-05-15T02:43:08.875Z,70.48
2023-05-15T02:45:37.006Z,70.52
2023-05-15T02:48:05.613Z,70.93
2023-05-15T02:50:33.352Z,70.06
2023-05-15T02:53:05.234Z,70.87
2023-05-15T02:55:33.935Z,71.22
2023-05-15T02:58:59.292Z,71.26
2023-05-15T03:01:26.962Z,71.52
2023-05-15T03:03:54.521Z,71.43
2023-05-15T03:06:22.404Z,71.87
2023-05-15T03:08:49.887Z,71.77
2023-05-15T03:11:21.453Z,72.19
2023-05-15T03:13:49.107Z,71.85
2023-05-15T03:16:16.618Z,71.96
2023-05-15T03:18:44.217Z,72.48
2023-05-15T03:21:11.780Z,72.38
2023-05-15T03:24:45.511Z,72.48
2023-05-15T03:27:13.115Z,72.66
2023-05-15T03:30:06.685Z,72.75
2023-05-15T03:32:35.140Z,72.64
2023-05-15T03:35:02.789Z,72.78
2023-05-15T03:38:03.583Z,73.15
2023-05-15T03:40:41.708Z,73.26
2023-05-15T03:43:09.332Z,73.43
2023-05-15T03:45:36.913Z,73.39
2023-05-15T03:48:04.897Z,73.00
2023-05-15T03:50:33.119Z,72.84
2023-05-15T03:53:00.946Z,73.07
2023-05-15T03:55:28.544Z,73.32
2023-05-15T03:57:56.898Z,73.39
2023-05-15T04:00:24.824Z,73.75
2023-05-15T04:02:52.720Z,73.34
2023-05-15T04:05:23.168Z,73.53
2023-05-15T04:07:51.036Z,73.60
2023-05-15T04:10:19.341Z,74.23
2023-05-15T04:12:47.924Z,73.99
2023-05-15T04:15:21.662Z,73.69
2023-05-15T04:17:53.555Z,74.18
2023-05-15T04:20:23.488Z,74.42
2023-05-15T04:22:52.040Z,74.44
2023-05-15T04:26:28.389Z,74.29
2023-05-15T04:29:03.863Z,73.97
2023-05-15T04:31:32.393Z,74.50
2023-05-15T04:34:00.066Z,74.65
2023-05-15T04:36:27.664Z,74.50
2023-05-15T04:38:55.175Z,74.19
2023-05-15T04:41:23.279Z,74.58
2023-05-15T04:43:50.951Z,74.85
2023-05-15T04:46:18.644Z,74.49
2023-05-15T04:48:46.236Z,74.76
2023-05-15T04:51:13.765Z,74.63
2023-05-15T04:53:41.368Z,74.66
2023-05-15T04:56:09.057Z,74.84
2023-05-15T04:58:36.574Z,74.90
2023-05-15T05:01:04.752Z,74.50
2023-05-15T05:03:32.460Z,74.41
2023-05-15T05:06:00.468Z,74.06
2023-05-15T05:08:27.986Z,74.29
2023-05-15T05:10:57.542Z,74.24
2023-05-15T05:13:25.214Z,74.24
2023-05-15T05:15:52.768Z,73.90
2023-05-15T05:18:20.321Z,73.80
2023-05-15T05:20:47.876Z,74.10
2023-05-15T05:23:15.414Z,73.13
2023-05-15T05:25:42.985Z,72.87
2023-05-15T05:28:10.603Z,71.57
2023-05-15T05:30:38.235Z,69.99
2023-05-15T05:33:06.525Z,69.14
2023-05-15T05:35:34.194Z,68.34
2023-05-15T05:38:01.863Z,66.53
2023-05-15T05:40:29.588Z,64.91
2023-05-15T05:43:04.011Z,63.41
2023-05-15T05:45:31.988Z,62.32
2023-05-15T05:47:59.579Z,61.81
2023-05-15T05:50:27.210Z,60.49
2023-05-15T05:52:54.736Z,59.63
2023-05-15T05:55:22.400Z,59.04
2023-05-15T05:57:51.131Z,57.97
2023-05-15T06:00:19.608Z,56.87
2023-05-15T06:02:47.868Z,56.58
2023-05-15T06:05:15.545Z,55.70
2023-05-15T06:07:43.283Z,54.33
2023-05-15T06:10:10.914Z,53.61
2023-05-15T06:12:38.558Z,52.69
2023-05-15T06:15:07.112Z,52.41
2023-05-15T06:17:34.689Z,52.20
2023-05-15T06:20:02.869Z,51.40
2023-05-15T06:22:32.465Z,50.73
2023-05-15T06:25:00.209Z,50.40
2023-05-15T06:27:33.209Z,49.83
2023-05-15T06:30:30.044Z,48.81
2023-05-15T06:32:57.770Z,49.08
2023-05-15T06:35:25.586Z,48.57
2023-05-15T06:38:15.169Z,47.32
2023-05-15T06:41:26.105Z,46.98
2023-05-15T06:48:27.872Z,45.88
2023-05-15T06:50:56.095Z,44.96
2023-05-15T06:53:23.748Z,44.16
2023-05-15T06:59:26.348Z,43.05
2023-05-15T07:01:54.084Z,42.17
2023-05-15T07:12:45.243Z,40.37
2023-05-15T07:15:53.361Z,39.43
2023-05-15T07:22:56.621Z,38.29
2023-05-15T07:39:26.163Z,36.29
2023-05-15T07:42:07.355Z,35.99
2023-05-15T08:16:36.747Z,38.43
2023-05-15T08:19:07.404Z,38.03
2023-05-15T08:21:35.087Z,38.15
2023-05-15T08:24:03.043Z,38.41
2023-05-15T08:26:30.761Z,38.61
2023-05-15T08:28:58.294Z,39.02
2023-05-15T08:31:25.959Z,39.55
2023-05-15T08:33:53.581Z,39.47
2023-05-15T08:36:21.842Z,39.93
2023-05-15T08:38:49.418Z,40.54
2023-05-15T08:41:40.400Z,40.68
2023-05-15T08:44:11.167Z,39.93
2023-05-15T08:46:39.170Z,38.64
2023-05-15T08:49:22.058Z,37.98
2023-05-15T08:51:49.847Z,37.66
2023-05-15T08:54:18.544Z,37.88
2023-05-15T08:56:46.206Z,38.13
2023-05-15T08:59:13.872Z,38.13
2023-05-15T09:01:41.531Z,38.68
2023-05-15T09:04:09.566Z,38.31
2023-05-15T09:06:40.956Z,38.09
2023-05-15T09:09:09.954Z,37.75
2023-05-15T09:11:38.686Z,36.81
2023-05-15T09:14:08.014Z,35.49
2023-05-15T09:16:35.773Z,34.17
2023-05-15T09:19:03.477Z,32.86
2023-05-15T09:21:31.736Z,31.45
2023-05-15T09:24:31.798Z,30.36
2023-05-15T09:27:04.682Z,29.20
2023-05-15T09:29:33.598Z,28.73
2023-05-15T09:32:06.473Z,28.04
2023-05-15T09:34:35.977Z,27.52
2023-05-15T09:37:05.984Z,27.30
2023-05-15T09:39:43.914Z,27.60
2023-05-15T09:42:15.103Z,29.14
2023-05-15T09:44:44.676Z,30.23
2023-05-15T09:47:14.458Z,29.66
2023-05-15T09:49:44.721Z,30.15
2023-05-15T09:52:12.972Z,30.31
2023-05-15T09:54:40.761Z,29.44
2023-05-15T09:57:10.159Z,29.30
2023-05-15T09:59:48.565Z,28.42
2023-05-15T10:02:36.429Z,28.49
2023-05-15T10:05:04.664Z,28.54
2023-05-15T10:07:36.502Z,29.03
2023-05-15T10:10:05.444Z,29.70
2023-05-15T10:12:36.661Z,30.17
2023-05-15T10:15:04.880Z,30.57
2023-05-15T10:17:35.969Z,30.66
2023-05-15T10:20:07.203Z,31.04
2023-05-15T10:22:41.386Z,31.79
2023-05-15T10:25:23.915Z,32.35
2023-05-15T10:27:52.182Z,31.94
2023-05-15T10:30:20.555Z,31.65
2023-05-15T10:32:50.006Z,30.56
2023-05-15T10:35:18.257Z,29.45
2023-05-15T10:37:48.197Z,28.71
2023-05-15T10:40:17.492Z,28.12
2023-05-15T10:42:47.582Z,27.56
2023-05-15T10:45:15.486Z,27.17
2023-05-15T10:47:44.278Z,26.78
2023-05-15T10:54:40.623Z,25.35
2023-05-15T10:57:08.564Z,24.68
2023-05-15T10:59:52.551Z,24.35
2023-05-15T11:07:12.136Z,24.35
2023-05-15T11:09:40.458Z,24.86
2023-05-15T11:12:09.604Z,24.86
2023-05-15T11:14:42.859Z,24.36
2023-05-15T11:17:17.703Z,23.67
2023-05-15T11:19:51.562Z,25.11
2023-05-15T11:22:21.662Z,26.30
2023-05-15T11:24:54.732Z,27.45
2023-05-15T11:27:38.060Z,28.83
2023-05-15T11:30:15.313Z,28.87
2023-05-15T11:32:44.137Z,27.70
2023-05-15T11:35:18.487Z,26.71
2023-05-15T11:37:48.228Z,25.85
2023-05-15T11:40:56.108Z,24.75
2023-05-15T11:43:28.770Z,24.55
2023-05-15T11:46:09.699Z,24.17
2023-05-15T11:48:45.256Z,23.33
2023-05-15T11:51:25.101Z,23.15
2023-05-15T11:53:55.055Z,24.22
2023-05-15T11:56:24.818Z,24.45
2023-05-15T11:58:57.032Z,24.20
2023-05-15T12:01:25.066Z,23.85
2023-05-15T12:03:55.222Z,23.84
2023-05-15T12:06:24.206Z,23.77
2023-05-15T12:08:53.158Z,23.79
2023-05-15T12:11:24.822Z,23.76
2023-05-15T12:13:54.277Z,23.79
2023-05-15T12:16:26.784Z,24.16
2023-05-15T12:18:57.220Z,24.76
2023-05-15T12:21:27.306Z,24.71
2023-05-15T12:24:07.856Z,24.74
2023-05-15T12:26:36.260Z,24.56
2023-05-15T12:29:05.098Z,24.13
2023-05-15T12:31:35.817Z,24.38
2023-05-15T12:34:03.606Z,24.47
2023-05-15T12:36:31.332Z,23.96
2023-05-15T12:39:04.816Z,23.58
2023-05-15T12:41:32.801Z,23.77
2023-05-15T12:44:00.455Z,23.86
2023-05-15T12:46:32.504Z,24.14
2023-05-15T12:49:01.426Z,24.50
2023-05-15T12:51:30.194Z,23.97
2023-05-15T12:53:58.422Z,24.26
2023-05-15T12:56:26.506Z,23.48
2023-05-15T12:58:56.210Z,22.64
2023-05-15T13:01:23.894Z,22.29
2023-05-15T13:03:52.401Z,21.57
2023-05-15T13:06:23.596Z,21.26
2023-05-15T13:08:51.568Z,21.60
2023-05-15T13:11:19.446Z,21.34
2023-05-15T13:13:49.001Z,21.78
2023-05-15T13:16:25.784Z,22.07
2023-05-15T13:18:53.582Z,22.37
2023-05-15T13:21:21.449Z,22.29
2023-05-15T13:23:49.230Z,22.89
2023-05-15T13:26:17.176Z,22.25
2023-05-15T13:28:44.805Z,22.69
2023-05-15T13:31:12.514Z,22.84
2023-05-15T13:33:40.262Z,23.47
2023-05-15T13:36:07.940Z,24.39
2023-05-15T13:38:35.598Z,25.15
2023-05-15T13:41:04.530Z,26.07
2023-05-15T13:43:32.087Z,27.31
2023-05-15T13:45:59.599Z,28.82
2023-05-15T13:48:27.348Z,29.44
2023-05-15T13:50:54.869Z,30.23
2023-05-15T13:53:22.453Z,30.17
2023-05-15T13:55:50.116Z,30.09
2023-05-15T13:58:17.697Z,30.00
2023-05-15T14:00:45.389Z,30.13
2023-05-15T14:03:14.969Z,30.67
2023-05-15T14:05:43.155Z,30.97
2023-05-15T14:08:11.095Z,31.02
2023-05-15T14:10:38.858Z,30.76
2023-05-15T14:13:06.438Z,30.24
2023-05-15T14:15:34.032Z,29.96
2023-05-15T14:18:01.630Z,30.03
2023-05-15T14:20:29.346Z,30.20
2023-05-15T14:22:56.874Z,30.72
2023-05-15T14:25:24.594Z,30.91
2023-05-15T14:27:52.519Z,31.85
2023-05-15T14:30:22.273Z,32.15
2023-05-15T14:32:49.965Z,32.16
2023-05-15T14:35:17.567Z,32.20
2023-05-15T14:37:45.282Z,32.48
2023-05-15T14:40:13.511Z,32.83
2023-05-15T14:42:41.115Z,33.29
2023-05-15T14:45:09.286Z,33.37
2023-05-15T14:47:36.939Z,33.91
2023-05-15T14:50:04.992Z,34.39
2023-05-15T14:52:32.556Z,34.51
2023-05-15T14:55:09.211Z,34.79
2023-05-15T14:57:38.504Z,34.51
2023-05-15T15:00:07.217Z,34.71
2023-05-15T15:02:35.217Z,34.99
2023-05-15T15:05:03.274Z,35.02
2023-05-15T15:07:30.938Z,35.41
2023-05-15T15:09:58.436Z,35.32
2023-05-15T15:12:26.907Z,35.20
2023-05-15T15:14:54.496Z,35.48
2023-05-15T15:17:22.063Z,35.28
2023-05-15T15:19:49.552Z,35.39
2023-05-15T15:22:17.161Z,35.61
2023-05-15T15:24:44.729Z,35.81
2023-05-15T15:27:12.297Z,35.87
2023-05-15T15:29:39.847Z,36.20
2023-05-15T15:32:07.728Z,36.16
2023-05-15T15:34:35.400Z,36.32
2023-05-15T15:37:03.594Z,35.91
2023-05-15T15:39:33.138Z,35.89
2023-05-15T15:42:00.762Z,35.65
2023-05-15T15:44:28.440Z,36.20
2023-05-15T15:46:56.148Z,36.31
2023-05-15T15:49:23.705Z,36.74
2023-05-15T15:51:51.430Z,36.97
2023-05-15T15:54:18.984Z,36.85
2023-05-15T15:56:47.992Z,36.73
2023-05-15T15:59:15.690Z,36.63
2023-05-15T16:01:43.611Z,36.95
2023-05-15T16:04:11.424Z,37.11
2023-05-15T16:06:39.217Z,36.74
2023-05-15T16:09:06.846Z,36.69
2023-05-15T16:11:34.496Z,36.33
2023-05-15T16:14:02.059Z,36.28
2023-05-15T16:16:29.671Z,36.53
2023-05-15T16:18:57.257Z,36.44
2023-05-15T16:21:24.911Z,36.63
2023-05-15T16:23:52.410Z,37.16
2023-05-15T16:26:20.606Z,37.77
2023-05-15T16:28:48.224Z,37.64
2023-05-15T16:31:16.323Z,38.11
2023-05-15T16:33:43.974Z,37.78
2023-05-15T16:36:11.876Z,37.71
2023-05-15T16:38:39.630Z,37.48
2023-05-15T16:41:07.384Z,37.38
2023-05-15T16:43:41.410Z,37.44
2023-05-15T16:46:09.129Z,37.50
2023-05-15T16:48:36.887Z,37.48
2023-05-15T16:51:04.799Z,37.75
2023-05-15T16:53:32.568Z,37.88
2023-05-15T16:56:00.469Z,37.91
2023-05-15T16:58:28.343Z,38.07
2023-05-15T17:00:55.944Z,38.30
2023-05-15T17:03:23.683Z,38.41
2023-05-15T17:05:51.454Z,38.53
2023-05-15T17:08:19.080Z,38.79
2023-05-15T17:10:46.676Z,39.03
2023-05-15T17:13:14.660Z,39.18
2023-05-15T17:15:42.392Z,39.50
2023-05-15T17:18:10.072Z,39.51
2023-05-15T17:20:37.700Z,40.09
2023-05-15T17:23:05.366Z,40.44
2023-05-15T17:25:33.034Z,41.26
2023-05-15T17:28:00.611Z,41.76
2023-05-15T17:30:31.284Z,42.08
2023-05-15T17:33:00.617Z,42.60
2023-05-15T17:35:29.950Z,42.92
2023-05-15T17:37:59.675Z,42.71
2023-05-15T17:40:27.292Z,43.56
2023-05-15T17:42:54.861Z,43.35
2023-05-15T17:45:22.655Z,43.38
2023-05-15T17:47:50.284Z,43.64
2023-05-15T17:50:17.969Z,43.51
2023-05-15T17:52:45.629Z,43.97
2023-05-15T17:55:13.370Z,43.54
2023-05-15T17:57:40.984Z,43.72
2023-05-15T18:00:09.453Z,43.54
2023-05-15T18:02:39.853Z,43.67
2023-05-15T18:05:07.747Z,43.80
2023-05-15T18:07:35.267Z,43.79
2023-05-15T18:10:02.870Z,44.17
2023-05-15T18:12:30.371Z,44.72
2023-05-15T18:14:58.178Z,44.53
2023-05-15T18:26:13.563Z,44.88
2023-05-15T18:28:41.361Z,44.80
2023-05-15T18:31:09.019Z,45.57
2023-05-15T18:33:36.754Z,45.74
2023-05-15T18:36:07.280Z,45.93
2023-05-15T18:38:35.094Z,46.19
2023-05-15T18:41:02.753Z,45.98
2023-05-15T18:43:41.927Z,46.65
2023-05-15T18:46:10.042Z,46.30
2023-05-15T18:48:37.642Z,46.72
2023-05-15T18:51:05.323Z,47.10
2023-05-15T18:53:32.914Z,47.51
2023-05-15T18:56:00.703Z,47.53
2023-05-15T18:58:28.227Z,47.91
2023-05-15T19:00:56.662Z,48.19
2023-05-15T19:03:25.955Z,48.70
2023-05-15T19:05:53.660Z,48.81
2023-05-15T19:08:21.188Z,48.90
2023-05-15T19:10:49.000Z,48.51
2023-05-15T19:13:16.535Z,48.74
2023-05-15T19:42:55.597Z,51.16
2023-05-15T19:45:26.202Z,51.59
2023-05-15T19:47:53.781Z,51.64
2023-05-15T20:01:40.735Z,52.90
2023-05-15T20:04:08.512Z,53.12
2023-05-15T20:06:39.265Z,52.99
2023-05-15T20:09:06.943Z,53.37
2023-05-15T20:11:34.475Z,53.16
2023-05-15T20:25:51.343Z,54.54
2023-05-15T20:28:19.064Z,55.04
2023-05-15T20:30:49.637Z,55.10
2023-05-15T20:33:17.306Z,55.37
2023-05-15T20:35:48.643Z,55.30
2023-05-15T20:38:29.364Z,55.47
2023-05-15T20:45:32.666Z,55.75
2023-05-15T20:48:00.515Z,55.97
2023-05-15T20:50:28.445Z,56.26
2023-05-15T20:52:56.138Z,56.62
2023-05-15T20:55:23.695Z,56.19
2023-05-15T20:57:51.358Z,56.78
2023-05-15T21:00:19.556Z,56.94
2023-05-15T21:02:54.569Z,57.01
2023-05-15T21:05:26.109Z,56.59
2023-05-15T21:07:53.688Z,56.70
2023-05-15T21:10:21.308Z,56.57
2023-05-15T21:12:48.923Z,57.30
2023-05-15T21:15:16.584Z,56.91
2023-05-15T21:17:44.212Z,56.99
2023-05-15T21:20:12.121Z,57.60
2023-05-15T21:22:39.776Z,57.14
2023-05-15T21:25:07.783Z,57.79
2023-05-15T21:27:35.482Z,57.35
2023-05-15T21:30:03.143Z,57.92
2023-05-15T21:32:31.349Z,57.84
2023-05-15T21:35:01.899Z,57.82
2023-05-15T21:37:29.435Z,58.30
2023-05-15T21:39:56.926Z,57.76
2023-05-15T21:42:24.550Z,58.52
2023-05-15T21:44:52.051Z,58.80
2023-05-15T21:47:19.587Z,58.65
2023-05-15T21:49:47.278Z,58.90
2023-05-15T21:52:14.804Z,58.74
2023-05-15T21:54:43.948Z,58.55
2023-05-15T21:57:11.540Z,59.07
2023-05-15T21:59:39.050Z,59.06
2023-05-15T22:02:06.943Z,59.68
2023-05-15T22:04:34.784Z,59.70
2023-05-15T22:07:02.355Z,58.97
2023-05-15T22:09:29.978Z,59.22
2023-05-15T22:11:57.566Z,59.72
2023-05-15T22:14:25.112Z,59.52
2023-05-15T22:16:52.898Z,59.24
2023-05-15T22:19:32.178Z,59.71
2023-05-15T22:22:04.546Z,60.63
2023-05-15T22:24:32.584Z,60.24
2023-05-15T22:27:00.243Z,60.04
2023-05-15T22:29:27.804Z,60.35
2023-05-15T22:31:56.389Z,60.23
2023-05-15T22:34:25.455Z,60.45
2023-05-15T22:39:21.609Z,61.05
2023-05-15T22:41:49.399Z,61.30
2023-05-15T22:44:16.990Z,60.77
2023-05-15T22:46:44.758Z,60.88
2023-05-15T22:49:23.467Z,60.86
2023-05-15T22:51:55.687Z,61.13
2023-05-15T22:54:23.765Z,62.01
2023-05-15T22:56:52.647Z,62.11
2023-05-15T22:59:20.859Z,61.90
2023-05-15T23:01:49.359Z,61.82
2023-05-15T23:04:17.559Z,61.87
2023-05-15T23:06:45.605Z,61.82
2023-05-15T23:09:13.234Z,61.99
2023-05-15T23:11:40.793Z,62.32
2023-05-15T23:14:08.562Z,62.76
2023-05-15T23:16:36.275Z,62.70
2023-05-15T23:19:04.353Z,62.83
2023-05-15T23:21:31.951Z,62.91
2023-05-15T23:23:59.532Z,62.16
2023-05-15T23:26:27.402Z,62.98
2023-05-15T23:28:55.095Z,62.48
2023-05-15T23:31:22.917Z,62.64
2023-05-15T23:33:50.842Z,62.58
2023-05-15T23:36:18.451Z,63.42
2023-05-15T23:38:46.124Z,63.28
2023-05-15T23:41:13.939Z,62.81
2023-05-15T23:43:41.490Z,63.10
2023-05-15T23:46:09.145Z,63.15
2023-05-15T23:48:36.826Z,63.35
2023-05-15T23:51:04.531Z,63.49
2023-05-15T23:53:32.252Z,63.20
2023-05-15T23:55:59.789Z,63.40
2023-05-15T23:58:27.356Z,63.66
